createdAt,value
2017-04-12T00:00:28.940Z,101732.44
2017-04-12T00:01:27.543Z,101732.76
2017-04-12T00:02:26.150Z,101729.61
2017-04-12T00:03:24.704Z,101735.72
2017-04-12T00:04:23.178Z,101738.14
2017-04-12T00:05:21.727Z,101732.63
2017-04-12T00:06:20.331Z,101736.27
2017-04-12T00:07:18.884Z,101734.78
2017-04-12T00:08:17.509Z,101732.34
2017-04-12T00:09:16.032Z,101731.85
2017-04-12T00:10:14.558Z,101735.51
2017-04-12T00:11:13.146Z,101733.30
2017-04-12T00:12:11.669Z,101727.88
2017-04-12T00:13:10.228Z,101738.31
2017-04-12T00:14:08.725Z,101732.16
2017-04-12T00:15:07.365Z,101727.67
2017-04-12T00:16:05.855Z,101723.63
2017-04-12T00:17:04.495Z,101723.69
2017-04-12T00:18:03.080Z,101721.32
2017-04-12T00:19:01.632Z,101717.84
2017-04-12T00:20:00.239Z,101720.78
2017-04-12T00:20:58.799Z,101720.06
2017-04-12T00:21:57.646Z,101720.81
2017-04-12T00:22:56.151Z,101718.98
2017-04-12T00:23:54.715Z,101723.18
2017-04-12T00:24:53.252Z,101721.20
2017-04-12T00:25:51.779Z,101722.84
2017-04-12T00:26:50.376Z,101717.33
2017-04-12T00:27:48.963Z,101718.05
2017-04-12T00:28:47.463Z,101718.05
2017-04-12T00:29:46.013Z,101715.39
2017-04-12T00:30:44.509Z,101713.56
2017-04-12T00:31:43.049Z,101714.47
2017-04-12T00:32:41.584Z,101711.25
2017-04-12T00:33:40.097Z,101705.95
2017-04-12T00:34:38.632Z,101702.59
2017-04-12T00:35:37.184Z,101703.39
2017-04-12T00:36:35.698Z,101706.63
2017-04-12T00:37:34.233Z,101700.30
2017-04-12T00:38:32.822Z,101701.37
2017-04-12T00:39:31.347Z,101694.13
2017-04-12T00:40:29.852Z,101694.81
2017-04-12T00:41:28.339Z,101686.64
2017-04-12T00:42:26.835Z,101687.24
2017-04-12T00:43:25.353Z,101693.56
2017-04-12T00:44:23.966Z,101693.38
2017-04-12T00:45:22.519Z,101690.70
2017-04-12T00:46:21.214Z,101687.29
2017-04-12T00:47:19.707Z,101688.95
2017-04-12T00:48:18.315Z,101688.90
2017-04-12T00:49:16.920Z,101690.17
2017-04-12T00:50:15.427Z,101684.03
2017-04-12T00:51:13.928Z,101685.54
2017-04-12T00:52:12.424Z,101687.06
2017-04-12T00:53:10.939Z,101681.16
2017-04-12T00:54:09.515Z,101677.99
2017-04-12T00:55:08.063Z,101673.90
2017-04-12T00:56:06.589Z,101677.63
2017-04-12T00:57:05.455Z,101678.42
2017-04-12T00:58:04.128Z,101673.83
2017-04-12T00:59:02.668Z,101673.87
2017-04-12T01:00:01.307Z,101670.95
2017-04-12T01:00:59.893Z,101677.52
2017-04-12T01:01:58.564Z,101677.81
2017-04-12T01:02:57.112Z,101677.45
2017-04-12T01:03:55.688Z,101676.36
2017-04-12T01:04:54.308Z,101680.09
2017-04-12T01:05:52.931Z,101679.59
2017-04-12T01:06:51.475Z,101682.88
2017-04-12T01:07:49.994Z,101688.00
2017-04-12T01:08:48.554Z,101684.54
2017-04-12T01:09:47.052Z,101679.25
2017-04-12T01:10:45.623Z,101679.97
2017-04-12T01:11:44.128Z,101674.13
2017-04-12T01:12:42.703Z,101676.80
2017-04-12T01:13:41.312Z,101672.36
2017-04-12T01:14:39.968Z,101673.17
2017-04-12T01:15:38.529Z,101676.45
2017-04-12T01:16:37.093Z,101673.32
2017-04-12T01:17:35.720Z,101676.73
2017-04-12T01:18:34.326Z,101673.64
2017-04-12T01:19:32.924Z,101675.16
2017-04-12T01:20:31.447Z,101677.24
2017-04-12T01:21:30.001Z,101671.83
2017-04-12T01:22:28.594Z,101666.77
2017-04-12T01:23:27.132Z,101672.72
2017-04-12T01:24:25.635Z,101669.93
2017-04-12T01:25:24.149Z,101671.39
2017-04-12T01:26:22.800Z,101669.30
2017-04-12T01:27:21.404Z,101663.29
2017-04-12T01:28:20.023Z,101663.83
2017-04-12T01:29:18.527Z,101656.42
2017-04-12T01:30:17.165Z,101647.91
2017-04-12T01:31:15.659Z,101652.22
2017-04-12T01:32:14.151Z,101645.75
2017-04-12T01:33:12.643Z,101649.95
2017-04-12T01:34:11.314Z,101656.61
2017-04-12T01:35:09.992Z,101646.02
2017-04-12T01:36:08.487Z,101644.30
2017-04-12T01:37:07.079Z,101643.26
2017-04-12T01:38:05.611Z,101640.28
2017-04-12T01:39:04.458Z,101630.84
2017-04-12T01:40:02.998Z,101626.34
2017-04-12T01:41:01.540Z,101630.70
2017-04-12T01:42:00.042Z,101631.17
2017-04-12T01:42:58.608Z,101628.87
2017-04-12T01:43:57.203Z,101634.14
2017-04-12T01:44:55.792Z,101629.03
2017-04-12T01:45:54.399Z,101624.41
2017-04-12T01:46:52.906Z,101626.66
2017-04-12T01:47:51.428Z,101622.05
2017-04-12T01:48:50.051Z,101620.77
2017-04-12T01:49:48.783Z,101624.36
2017-04-12T01:50:47.351Z,101621.73
2017-04-12T01:51:45.851Z,101622.69
2017-04-12T01:52:44.580Z,101623.94
2017-04-12T01:53:43.122Z,101624.23
2017-04-12T01:54:41.627Z,101621.67
2017-04-12T01:55:40.151Z,101621.73
2017-04-12T01:56:38.736Z,101621.67
2017-04-12T01:57:37.235Z,101620.46
2017-04-12T01:58:35.792Z,101613.64
2017-04-12T01:59:34.312Z,101619.87
2017-04-12T02:00:32.835Z,101621.31
2017-04-12T02:01:31.390Z,101618.99
2017-04-12T02:02:29.923Z,101622.09
2017-04-12T02:03:28.451Z,101611.95
2017-04-12T02:04:27.060Z,101613.71
2017-04-12T02:05:25.638Z,101608.06
2017-04-12T02:06:24.257Z,101608.45
2017-04-12T02:07:22.886Z,101606.45
2017-04-12T02:08:21.556Z,101602.08
2017-04-12T02:09:20.280Z,101608.41
2017-04-12T02:10:18.923Z,101601.70
2017-04-12T02:11:17.426Z,101600.42
2017-04-12T02:12:15.923Z,101599.82
2017-04-12T02:13:14.459Z,101595.70
2017-04-12T02:14:12.988Z,101602.50
2017-04-12T02:15:11.515Z,101606.10
2017-04-12T02:16:10.024Z,101599.58
2017-04-12T02:17:08.519Z,101603.36
2017-04-12T02:18:07.094Z,101603.30
2017-04-12T02:19:05.741Z,101605.54
2017-04-12T02:20:04.313Z,101609.27
2017-04-12T02:21:02.956Z,101603.48
2017-04-12T02:22:01.439Z,101603.54
2017-04-12T02:22:59.970Z,101602.03
2017-04-12T02:23:58.520Z,101600.81
2017-04-12T02:24:57.035Z,101596.91
2017-04-12T02:25:55.631Z,101594.29
2017-04-12T02:26:54.221Z,101593.16
2017-04-12T02:27:52.714Z,101596.61
2017-04-12T02:28:51.240Z,101594.85
2017-04-12T02:29:49.873Z,101593.75
2017-04-12T02:30:48.406Z,101590.20
2017-04-12T02:31:46.995Z,101589.98
2017-04-12T02:32:45.510Z,101583.76
2017-04-12T02:33:44.015Z,101590.34
2017-04-12T02:34:42.560Z,101592.09
2017-04-12T02:35:41.104Z,101581.08
2017-04-12T02:36:39.615Z,101581.17
2017-04-12T02:37:38.159Z,101579.07
2017-04-12T02:38:36.660Z,101576.52
2017-04-12T02:39:35.166Z,101576.05
2017-04-12T02:40:33.695Z,101571.17
2017-04-12T02:41:32.195Z,101570.50
2017-04-12T02:42:30.720Z,101564.28
2017-04-12T02:43:29.240Z,101560.77
2017-04-12T02:44:27.816Z,101556.63
2017-04-12T02:45:26.300Z,101557.12
2017-04-12T02:46:24.855Z,101561.28
2017-04-12T02:47:23.459Z,101557.02
2017-04-12T02:48:22.056Z,101564.30
2017-04-12T02:49:20.667Z,101556.94
2017-04-12T02:50:19.212Z,101553.11
2017-04-12T02:51:17.740Z,101551.27
2017-04-12T02:52:16.266Z,101545.43
2017-04-12T02:53:14.790Z,101542.63
2017-04-12T02:54:13.294Z,101542.27
2017-04-12T02:55:11.799Z,101534.38
2017-04-12T02:56:10.518Z,101533.53
2017-04-12T02:57:09.025Z,101539.03
2017-04-12T02:58:07.586Z,101532.56
2017-04-12T02:59:06.175Z,101537.25
2017-04-12T03:00:04.712Z,101533.55
2017-04-12T03:01:03.310Z,101529.47
2017-04-12T03:02:01.916Z,101527.75
2017-04-12T03:03:00.439Z,101530.70
2017-04-12T03:03:58.915Z,101526.85
2017-04-12T03:04:57.399Z,101530.19
2017-04-12T03:05:55.958Z,101531.06
2017-04-12T03:06:54.526Z,101526.97
2017-04-12T03:07:53.153Z,101530.08
2017-04-12T03:08:51.788Z,101533.80
2017-04-12T03:09:50.324Z,101531.64
2017-04-12T03:10:48.999Z,101531.16
2017-04-12T03:11:47.523Z,101532.57
2017-04-12T03:12:46.066Z,101528.44
2017-04-12T03:13:44.595Z,101520.09
2017-04-12T03:14:43.136Z,101521.13
2017-04-12T03:15:41.653Z,101515.79
2017-04-12T03:16:40.208Z,101511.78
2017-04-12T03:17:38.699Z,101516.09
2017-04-12T03:18:37.290Z,101514.27
2017-04-12T03:19:35.863Z,101515.34
2017-04-12T03:20:34.487Z,101516.94
2017-04-12T03:21:33.003Z,101514.56
2017-04-12T03:22:31.564Z,101516.15
2017-04-12T03:23:30.088Z,101521.14
2017-04-12T03:24:28.595Z,101514.63
2017-04-12T03:25:27.174Z,101517.14
2017-04-12T03:26:25.703Z,101509.83
2017-04-12T03:27:24.217Z,101507.53
2017-04-12T03:28:22.800Z,101506.22
2017-04-12T03:29:21.291Z,101506.37
2017-04-12T03:30:20.070Z,101506.91
2017-04-12T03:31:18.640Z,101498.95
2017-04-12T03:32:17.202Z,101503.14
2017-04-12T03:33:15.707Z,101506.69
2017-04-12T03:34:14.287Z,101499.34
2017-04-12T03:35:12.868Z,101503.22
2017-04-12T03:36:11.380Z,101508.45
2017-04-12T03:37:09.887Z,101498.67
2017-04-12T03:38:08.491Z,101498.30
2017-04-12T03:39:07.779Z,101500.30
2017-04-12T03:40:06.315Z,101496.23
2017-04-12T03:41:04.875Z,101493.30
2017-04-12T03:42:03.503Z,101490.66
2017-04-12T03:43:02.102Z,101494.31
2017-04-12T03:44:00.697Z,101499.66
2017-04-12T03:44:59.208Z,101495.13
2017-04-12T03:45:57.791Z,101496.15
2017-04-12T03:46:56.298Z,101488.80
2017-04-12T03:47:54.841Z,101490.32
2017-04-12T03:48:53.360Z,101500.15
2017-04-12T03:49:51.941Z,101495.89
2017-04-12T03:50:50.447Z,101494.09
2017-04-12T03:51:48.959Z,101479.20
2017-04-12T03:52:47.539Z,101485.17
2017-04-12T03:53:46.103Z,101488.55
2017-04-12T03:54:44.636Z,101492.38
2017-04-12T03:55:43.134Z,101487.63
2017-04-12T03:56:41.644Z,101482.06
2017-04-12T03:57:40.152Z,101486.19
2017-04-12T03:58:38.745Z,101481.04
2017-04-12T03:59:37.354Z,101481.96
2017-04-12T04:00:35.924Z,101481.61
2017-04-12T04:01:34.465Z,101480.83
2017-04-12T04:02:33.012Z,101484.67
2017-04-12T04:03:31.500Z,101485.33
2017-04-12T04:04:29.988Z,101481.63
2017-04-12T04:05:28.499Z,101488.23
2017-04-12T04:06:27.064Z,101483.31
2017-04-12T04:07:25.562Z,101483.79
2017-04-12T04:08:24.182Z,101476.71
2017-04-12T04:09:22.783Z,101482.94
2017-04-12T04:10:21.436Z,101480.39
2017-04-12T04:11:19.980Z,101479.11
2017-04-12T04:12:18.511Z,101477.78
2017-04-12T04:13:17.011Z,101479.92
2017-04-12T04:14:15.632Z,101484.23
2017-04-12T04:15:14.155Z,101474.59
2017-04-12T04:16:12.736Z,101479.23
2017-04-12T04:17:11.242Z,101482.54
2017-04-12T04:18:09.739Z,101479.94
2017-04-12T04:19:08.276Z,101471.72
2017-04-12T04:20:06.794Z,101479.45
2017-04-12T04:21:05.313Z,101475.83
2017-04-12T04:22:03.830Z,101473.97
2017-04-12T04:23:02.323Z,101476.98
2017-04-12T04:24:00.844Z,101477.67
2017-04-12T04:24:59.343Z,101466.50
2017-04-12T04:25:57.883Z,101466.80
2017-04-12T04:26:56.475Z,101472.03
2017-04-12T04:27:55.063Z,101472.12
2017-04-12T04:28:53.715Z,101471.89
2017-04-12T04:29:52.244Z,101463.87
2017-04-12T04:30:50.763Z,101467.39
2017-04-12T04:31:49.284Z,101470.69
2017-04-12T04:32:47.835Z,101462.55
2017-04-12T04:33:46.418Z,101458.53
2017-04-12T04:34:44.953Z,101457.60
2017-04-12T04:35:43.463Z,101450.23
2017-04-12T04:36:41.988Z,101456.06
2017-04-12T04:37:40.588Z,101459.91
2017-04-12T04:38:39.199Z,101460.03
2017-04-12T04:39:38.006Z,101459.94
2017-04-12T04:40:36.602Z,101455.57
2017-04-12T04:41:35.203Z,101459.38
2017-04-12T04:42:33.821Z,101457.28
2017-04-12T04:43:32.460Z,101450.27
2017-04-12T04:44:31.003Z,101447.80
2017-04-12T04:45:29.596Z,101446.22
2017-04-12T04:46:28.186Z,101450.30
2017-04-12T04:47:26.715Z,101442.58
2017-04-12T04:48:25.211Z,101441.62
2017-04-12T04:49:23.719Z,101443.47
2017-04-12T04:50:22.272Z,101438.11
2017-04-12T04:51:20.826Z,101441.70
2017-04-12T04:52:19.315Z,101442.97
2017-04-12T04:53:17.914Z,101442.95
2017-04-12T04:54:16.411Z,101445.03
2017-04-12T04:55:15.156Z,101448.97
2017-04-12T04:56:13.692Z,101443.39
2017-04-12T04:57:12.223Z,101448.30
2017-04-12T04:58:10.787Z,101446.30
2017-04-12T04:59:09.279Z,101447.13
2017-04-12T05:00:07.884Z,101450.43
2017-04-12T05:01:06.410Z,101451.53
2017-04-12T05:02:04.946Z,101448.28
2017-04-12T05:03:03.483Z,101443.39
2017-04-12T05:04:02.112Z,101448.11
2017-04-12T05:05:00.625Z,101444.45
2017-04-12T05:05:59.171Z,101451.03
2017-04-12T05:06:57.751Z,101444.46
2017-04-12T05:07:56.246Z,101445.41
2017-04-12T05:08:54.756Z,101435.00
2017-04-12T05:09:53.321Z,101443.22
2017-04-12T05:10:51.819Z,101447.43
2017-04-12T05:11:50.323Z,101446.02
2017-04-12T05:12:48.924Z,101443.24
2017-04-12T05:13:47.428Z,101440.84
2017-04-12T05:14:45.932Z,101428.61
2017-04-12T05:15:44.430Z,101432.13
2017-04-12T05:16:43.122Z,101440.96
2017-04-12T05:17:41.694Z,101436.87
2017-04-12T05:18:40.189Z,101437.32
2017-04-12T05:19:38.719Z,101436.61
2017-04-12T05:20:37.216Z,101436.52
2017-04-12T05:21:35.782Z,101444.39
2017-04-12T05:22:34.346Z,101435.78
2017-04-12T05:24:38.006Z,101431.69
2017-04-12T05:25:36.557Z,101438.95
2017-04-12T05:26:35.068Z,101436.70
2017-04-12T05:27:33.559Z,101431.53
2017-04-12T05:28:32.092Z,101436.05
2017-04-12T05:29:30.624Z,101434.08
2017-04-12T05:30:29.132Z,101435.23
2017-04-12T05:31:27.631Z,101428.99
2017-04-12T05:32:26.210Z,101427.41
2017-04-12T05:33:24.771Z,101427.05
2017-04-12T05:34:23.274Z,101425.11
2017-04-12T05:35:21.767Z,101429.48
2017-04-12T05:36:20.343Z,101423.58
2017-04-12T05:37:18.948Z,101421.88
2017-04-12T05:38:17.455Z,101416.75
2017-04-12T05:39:15.955Z,101416.77
2017-04-12T05:40:14.532Z,101419.91
2017-04-12T05:41:13.051Z,101412.30
2017-04-12T05:42:11.619Z,101414.64
2017-04-12T05:43:10.219Z,101410.70
2017-04-12T05:44:08.780Z,101411.50
2017-04-12T05:45:07.294Z,101413.11
2017-04-12T05:46:05.795Z,101421.99
2017-04-12T05:47:04.348Z,101418.39
2017-04-12T05:48:02.932Z,101415.47
2017-04-12T05:49:01.476Z,101407.02
2017-04-12T05:49:59.984Z,101412.77
2017-04-12T05:50:58.492Z,101408.67
2017-04-12T05:51:57.032Z,101412.97
2017-04-12T05:52:55.536Z,101407.22
2017-04-12T05:53:54.063Z,101404.80
2017-04-12T05:54:52.612Z,101410.30
2017-04-12T05:55:51.163Z,101412.09
2017-04-12T05:56:49.683Z,101413.29
2017-04-12T05:57:48.231Z,101411.09
2017-04-12T05:58:46.727Z,101405.99
2017-04-12T05:59:45.254Z,101402.98
2017-04-12T06:00:43.798Z,101411.16
2017-04-12T06:01:42.319Z,101417.66
2017-04-12T06:02:40.824Z,101409.95
2017-04-12T06:03:39.411Z,101404.88
2017-04-12T06:04:38.036Z,101406.58
2017-04-12T06:05:36.540Z,101410.95
2017-04-12T06:06:35.165Z,101409.05
2017-04-12T06:07:33.946Z,101409.63
2017-04-12T06:08:32.854Z,101412.40
2017-04-12T06:09:31.363Z,101407.97
2017-04-12T06:10:30.135Z,101405.66
2017-04-12T06:11:28.700Z,101411.11
2017-04-12T06:12:27.264Z,101411.38
2017-04-12T06:13:25.800Z,101407.77
2017-04-12T06:14:24.440Z,101411.42
2017-04-12T06:15:23.072Z,101413.01
2017-04-12T06:16:21.659Z,101411.54
2017-04-12T06:17:20.208Z,101409.49
2017-04-12T06:18:19.037Z,101408.09
2017-04-12T06:19:17.589Z,101409.98
2017-04-12T06:20:16.103Z,101411.03
2017-04-12T06:21:14.694Z,101405.17
2017-04-12T06:22:13.243Z,101402.96
2017-04-12T06:23:11.744Z,101403.23
2017-04-12T06:24:10.384Z,101405.95
2017-04-12T06:25:08.919Z,101396.37
2017-04-12T06:26:07.434Z,101397.89
2017-04-12T06:27:06.070Z,101398.58
2017-04-12T06:28:04.602Z,101399.10
2017-04-12T06:29:03.143Z,101402.89
2017-04-12T06:30:01.630Z,101403.67
2017-04-12T06:31:00.167Z,101402.97
2017-04-12T06:31:58.667Z,101399.01
2017-04-12T06:32:57.195Z,101398.16
2017-04-12T06:33:55.868Z,101397.05
2017-04-12T06:34:54.399Z,101398.38
2017-04-12T06:35:52.974Z,101395.83
2017-04-12T06:36:51.515Z,101397.11
2017-04-12T06:37:50.055Z,101398.13
2017-04-12T06:38:48.588Z,101396.12
2017-04-12T06:39:47.170Z,101394.34
2017-04-12T06:40:45.711Z,101395.12
2017-04-12T06:41:44.261Z,101393.23
2017-04-12T06:42:42.768Z,101391.84
2017-04-12T06:43:41.353Z,101392.02
2017-04-12T06:44:39.870Z,101392.52
2017-04-12T06:45:38.385Z,101396.94
2017-04-12T06:46:36.900Z,101395.84
2017-04-12T06:47:35.635Z,101397.98
2017-04-12T06:48:34.182Z,101391.75
2017-04-12T06:49:32.763Z,101394.83
2017-04-12T06:50:31.296Z,101397.55
2017-04-12T06:51:29.863Z,101394.41
2017-04-12T06:52:28.383Z,101397.46
2017-04-12T06:53:26.913Z,101398.84
2017-04-12T06:54:25.444Z,101400.16
2017-04-12T06:55:23.979Z,101398.70
2017-04-12T06:56:22.469Z,101398.45
2017-04-12T06:57:20.987Z,101400.34
2017-04-12T06:58:19.516Z,101402.34
2017-04-12T06:59:18.051Z,101403.97
2017-04-12T07:00:16.633Z,101395.23
2017-04-12T07:01:15.176Z,101403.19
2017-04-12T07:02:13.763Z,101398.82
2017-04-12T07:03:19.762Z,101397.23
2017-04-12T07:04:18.367Z,101394.73
2017-04-12T07:05:16.965Z,101385.14
2017-04-12T07:06:15.611Z,101380.53
2017-04-12T07:07:14.242Z,101392.77
2017-04-12T07:08:13.221Z,101394.82
2017-04-12T07:09:11.742Z,101386.99
2017-04-12T07:10:10.256Z,101392.52
2017-04-12T07:11:08.792Z,101391.73
2017-04-12T07:12:07.402Z,101388.84
2017-04-12T07:13:05.912Z,101387.58
2017-04-12T07:14:04.497Z,101372.97
2017-04-12T07:15:03.048Z,101376.41
2017-04-12T07:16:01.631Z,101373.69
2017-04-12T07:17:00.222Z,101374.98
2017-04-12T07:17:58.851Z,101377.66
2017-04-12T07:18:57.372Z,101374.98
2017-04-12T07:19:55.891Z,101377.70
2017-04-12T07:20:54.418Z,101373.33
2017-04-12T07:21:52.951Z,101372.80
2017-04-12T07:22:51.559Z,101370.52
2017-04-12T07:23:50.158Z,101373.63
2017-04-12T07:24:48.751Z,101365.78
2017-04-12T07:25:47.239Z,101372.27
2017-04-12T07:26:45.736Z,101371.02
2017-04-12T07:27:44.263Z,101372.68
2017-04-12T07:28:43.060Z,101372.13
2017-04-12T07:29:41.579Z,101359.95
2017-04-12T07:30:40.219Z,101361.99
2017-04-12T07:31:38.847Z,101369.91
2017-04-12T07:32:37.459Z,101361.21
2017-04-12T07:33:35.998Z,101360.45
2017-04-12T07:34:34.519Z,101365.31
2017-04-12T07:35:33.088Z,101367.52
2017-04-12T07:36:31.658Z,101364.38
2017-04-12T07:37:30.272Z,101371.20
2017-04-12T07:38:28.851Z,101362.64
2017-04-12T07:39:27.404Z,101362.42
2017-04-12T07:40:25.945Z,101360.41
2017-04-12T07:41:24.474Z,101362.78
2017-04-12T07:42:22.990Z,101353.05
2017-04-12T07:43:21.639Z,101357.20
2017-04-12T07:44:20.179Z,101349.98
2017-04-12T07:45:18.879Z,101350.21
2017-04-12T07:46:17.408Z,101346.77
2017-04-12T07:47:16.001Z,101346.25
2017-04-12T07:48:14.504Z,101351.55
2017-04-12T07:49:13.056Z,101357.20
2017-04-12T07:50:11.663Z,101355.53
2017-04-12T07:51:10.218Z,101360.10
2017-04-12T07:52:08.789Z,101350.97
2017-04-12T07:53:07.359Z,101349.38
2017-04-12T07:54:06.295Z,101341.80
2017-04-12T07:55:04.919Z,101346.22
2017-04-12T07:56:03.513Z,101344.45
2017-04-12T07:57:02.151Z,101342.41
2017-04-12T07:58:00.783Z,101348.73
2017-04-12T07:58:59.369Z,101342.09
2017-04-12T07:59:57.875Z,101337.55
2017-04-12T08:00:56.437Z,101336.38
2017-04-12T08:01:55.011Z,101337.42
2017-04-12T08:02:54.176Z,101343.20
2017-04-12T08:03:52.758Z,101339.68
2017-04-12T08:04:51.324Z,101334.78
2017-04-12T08:05:49.918Z,101340.28
2017-04-12T08:06:48.483Z,101345.41
2017-04-12T08:07:47.008Z,101341.05
2017-04-12T08:08:45.533Z,101335.24
2017-04-12T08:09:44.104Z,101344.44
2017-04-12T08:10:42.603Z,101339.68
2017-04-12T08:11:41.123Z,101346.06
2017-04-12T08:12:39.656Z,101336.88
2017-04-12T08:13:38.239Z,101338.45
2017-04-12T08:14:36.744Z,101336.05
2017-04-12T08:15:35.331Z,101336.08
2017-04-12T08:16:33.899Z,101333.14
2017-04-12T08:17:32.433Z,101326.05
2017-04-12T08:18:30.980Z,101328.16
2017-04-12T08:19:29.555Z,101323.89
2017-04-12T08:20:28.103Z,101321.49
2017-04-12T08:21:26.610Z,101320.59
2017-04-12T08:22:25.100Z,101323.27
2017-04-12T08:23:23.616Z,101328.87
2017-04-12T08:24:22.228Z,101319.62
2017-04-12T08:25:20.776Z,101327.61
2017-04-12T08:26:19.279Z,101314.75
2017-04-12T08:27:17.802Z,101315.08
2017-04-12T08:28:16.311Z,101314.97
2017-04-12T08:29:14.826Z,101322.50
2017-04-12T08:30:13.358Z,101321.24
2017-04-12T08:31:11.850Z,101322.16
2017-04-12T08:32:10.480Z,101319.83
2017-04-12T08:33:09.075Z,101319.54
2017-04-12T08:34:07.581Z,101316.69
2017-04-12T08:35:06.169Z,101320.32
2017-04-12T08:36:04.721Z,101322.39
2017-04-12T08:37:03.244Z,101308.88
2017-04-12T08:38:01.815Z,101313.91
2017-04-12T08:39:00.623Z,101311.57
2017-04-12T08:39:59.140Z,101319.81
2017-04-12T08:40:57.712Z,101309.79
2017-04-12T08:41:56.344Z,101312.81
2017-04-12T08:42:54.928Z,101307.20
2017-04-12T08:43:53.444Z,101308.25
2017-04-12T08:44:52.036Z,101307.66
2017-04-12T08:45:50.547Z,101314.13
2017-04-12T08:46:49.133Z,101305.41
2017-04-12T08:47:47.863Z,101299.70
2017-04-12T08:48:46.455Z,101303.09
2017-04-12T08:49:45.324Z,101300.12
2017-04-12T08:50:43.843Z,101302.14
2017-04-12T08:51:42.431Z,101303.41
2017-04-12T08:52:40.986Z,101298.84
2017-04-12T08:53:39.538Z,101293.23
2017-04-12T08:54:38.125Z,101299.41
2017-04-12T08:55:36.637Z,101297.30
2017-04-12T08:56:35.172Z,101297.41
2017-04-12T08:57:33.691Z,101292.41
2017-04-12T08:58:32.923Z,101291.94
2017-04-12T08:59:31.572Z,101297.95
2017-04-12T09:00:30.148Z,101299.55
2017-04-12T09:01:28.690Z,101298.13
2017-04-12T09:02:27.219Z,101302.83
2017-04-12T09:03:25.800Z,101299.88
2017-04-12T09:04:24.314Z,101296.60
2017-04-12T09:05:22.875Z,101293.45
2017-04-12T09:06:21.395Z,101296.30
2017-04-12T09:07:19.939Z,101291.30
2017-04-12T09:08:18.471Z,101288.22
2017-04-12T09:09:17.039Z,101287.76
2017-04-12T09:10:15.547Z,101291.11
2017-04-12T09:11:14.089Z,101285.67
2017-04-12T09:12:12.663Z,101281.20
2017-04-12T09:13:11.184Z,101282.98
2017-04-12T09:14:09.754Z,101282.84
2017-04-12T09:15:08.539Z,101284.06
2017-04-12T09:16:07.034Z,101264.86
2017-04-12T09:17:05.723Z,101282.48
2017-04-12T09:18:04.271Z,101269.27
2017-04-12T09:19:02.755Z,101279.39
2017-04-12T09:20:01.285Z,101274.26
2017-04-12T09:20:59.826Z,101257.88
2017-04-12T09:21:58.327Z,101252.73
2017-04-12T09:22:56.804Z,101253.84
2017-04-12T09:23:55.409Z,101262.35
2017-04-12T09:24:53.994Z,101254.54
2017-04-12T09:25:52.554Z,101254.86
2017-04-12T09:26:51.230Z,101259.28
2017-04-12T09:27:49.723Z,101265.32
2017-04-12T09:28:48.281Z,101254.45
2017-04-12T09:29:46.799Z,101255.94
2017-04-12T09:30:45.317Z,101255.10
2017-04-12T09:31:43.919Z,101250.20
2017-04-12T09:32:42.534Z,101255.19
2017-04-12T09:33:41.072Z,101244.82
2017-04-12T09:34:39.572Z,101245.48
2017-04-12T09:35:38.162Z,101248.45
2017-04-12T09:36:36.687Z,101243.86
2017-04-12T09:37:35.222Z,101244.69
2017-04-12T09:38:33.860Z,101246.97
2017-04-12T09:39:32.379Z,101243.06
2017-04-12T09:40:31.131Z,101242.52
2017-04-12T09:41:29.656Z,101243.75
2017-04-12T09:42:28.168Z,101238.38
2017-04-12T09:43:26.708Z,101240.91
2017-04-12T09:44:25.363Z,101240.78
2017-04-12T09:45:24.007Z,101237.16
2017-04-12T09:46:22.607Z,101239.58
2017-04-12T09:47:21.283Z,101234.30
2017-04-12T09:48:19.934Z,101240.23
2017-04-12T09:49:18.488Z,101238.62
2017-04-12T09:50:17.027Z,101233.91
2017-04-12T09:51:15.571Z,101232.83
2017-04-12T09:52:14.114Z,101244.02
2017-04-12T09:53:12.621Z,101231.64
2017-04-12T09:54:11.107Z,101239.31
2017-04-12T09:55:09.603Z,101238.34
2017-04-12T09:56:08.123Z,101244.83
2017-04-12T09:57:06.647Z,101229.34
2017-04-12T09:58:05.180Z,101233.77
2017-04-12T09:59:03.711Z,101230.29
2017-04-12T10:00:02.222Z,101235.25
2017-04-12T10:01:00.748Z,101228.39
2017-04-12T10:01:59.371Z,101226.91
2017-04-12T10:02:57.882Z,101231.88
2017-04-12T10:03:56.399Z,101233.52
2017-04-12T10:04:54.918Z,101223.42
2017-04-12T10:05:53.535Z,101229.73
2017-04-12T10:06:52.194Z,101223.02
2017-04-12T10:07:50.702Z,101226.78
2017-04-12T10:08:49.311Z,101225.70
2017-04-12T10:09:47.850Z,101223.52
2017-04-12T10:10:46.486Z,101218.55
2017-04-12T10:11:45.057Z,101226.22
2017-04-12T10:12:43.559Z,101226.36
2017-04-12T10:13:42.050Z,101226.90
2017-04-12T10:14:40.578Z,101228.11
2017-04-12T10:15:39.099Z,101222.86
2017-04-12T10:16:37.679Z,101219.51
2017-04-12T10:17:36.266Z,101223.66
2017-04-12T10:18:34.811Z,101222.06
2017-04-12T10:19:33.495Z,101220.72
2017-04-12T10:20:32.024Z,101219.48
2017-04-12T10:21:30.676Z,101216.81
2017-04-12T10:22:29.211Z,101214.09
2017-04-12T10:23:27.752Z,101209.12
2017-04-12T10:24:26.256Z,101214.64
2017-04-12T10:25:24.779Z,101206.84
2017-04-12T10:26:23.339Z,101215.20
2017-04-12T10:27:21.860Z,101205.73
2017-04-12T10:28:20.391Z,101199.55
2017-04-12T10:29:18.904Z,101201.17
2017-04-12T10:30:17.408Z,101199.00
2017-04-12T10:31:15.931Z,101197.89
2017-04-12T10:32:14.480Z,101199.51
2017-04-12T10:33:13.019Z,101199.13
2017-04-12T10:34:11.539Z,101201.55
2017-04-12T10:35:10.071Z,101191.28
2017-04-12T10:36:08.624Z,101209.35
2017-04-12T10:37:07.161Z,101201.12
2017-04-12T10:38:05.771Z,101201.83
2017-04-12T10:39:04.797Z,101193.33
2017-04-12T10:40:03.322Z,101192.26
2017-04-12T10:41:01.812Z,101188.07
2017-04-12T10:42:00.359Z,101189.94
2017-04-12T10:42:58.884Z,101196.67
2017-04-12T10:43:57.407Z,101191.94
2017-04-12T10:44:55.892Z,101200.86
2017-04-12T10:45:54.409Z,101196.81
2017-04-12T10:46:52.976Z,101191.28
2017-04-12T10:47:51.507Z,101198.16
2017-04-12T10:48:50.022Z,101190.63
2017-04-12T10:49:48.544Z,101186.30
2017-04-12T10:50:47.121Z,101182.91
2017-04-12T10:51:45.646Z,101177.25
2017-04-12T10:52:44.167Z,101187.32
2017-04-12T10:53:42.647Z,101178.86
2017-04-12T10:54:41.200Z,101182.36
2017-04-12T10:55:39.802Z,101170.38
2017-04-12T10:56:38.319Z,101182.50
2017-04-12T10:57:36.823Z,101175.23
2017-04-12T10:58:35.400Z,101178.58
2017-04-12T10:59:33.991Z,101173.03
2017-04-12T11:00:32.526Z,101172.46
2017-04-12T11:01:31.107Z,101176.37
2017-04-12T11:02:29.743Z,101171.25
2017-04-12T11:03:28.264Z,101172.89
2017-04-12T11:04:26.807Z,101176.37
2017-04-12T11:05:25.423Z,101175.17
2017-04-12T11:06:23.995Z,101174.09
2017-04-12T11:07:22.526Z,101166.78
2017-04-12T11:08:21.140Z,101169.31
2017-04-12T11:09:19.660Z,101169.91